Weather History for KD39 - September, 2013

Change the Weather History Date:

Wednesday, September 4, 2013

  Actual Average (KGHW) Record (KGHW)
Temperature  
Mean Temperature 68 °F -  
Max Temperature 82 °F 76 °F 96 °F (2007)
Min Temperature 55 °F 51 °F 34 °F (1956)
Cooling Degree Days 4    
Growing Degree Days 18 (Base 50)    
Moisture  
Dew Point 58 °F    
Average Humidity 74    
Maximum Humidity 100    
Minimum Humidity 45    
Precipitation  
Precipitation 0.00 in - - ()
Sea Level Pressure  
Sea Level Pressure 30.11 in    
Wind  
Wind Speed 2 mph (ENE)    
Max Wind Speed 8 mph    
Max Gust Speed -    
Visibility 10 miles    
Events      
Averages and records for this station are not official NWS values.
T = Trace of Precipitation, MM = Missing Value Source: NWS Daily Summary

Daily Weather History Graph

Daily Weather History Graph

Search for Another Location

Airport or City:

Trip Planner

Search our weather history database for the weather conditions in past years. The results will help you decide how hot, cold, wet, or windy it might be!

Date:

Astronomy

Sep. 04, 2013 Rise Set
Actual Time 6:44 AM CDT 7:51 PM CDT
Civil Twilight 6:14 AM CDT 8:21 PM CDT
Nautical Twilight 5:37 AM CDT 8:58 PM CDT
Astronomical Twilight 4:59 AM CDT 9:36 PM CDT
Moon 5:58 AM CDT (9/4) 7:09 PM CDT (9/4)
Length of Visible Light 14h 07m
Length of Day
13h 06m
Waning Crescent, 1% of the Moon is Illuminated
Sep 4
Waning Crescent
Sep 5
New
Sep 12
First Quarter
Sep 19
Full
Sep 26
Last Quarter

Hourly Weather History & Observations

Time (CDT) Temp. Heat Index Dew Point Humidity Pressure Visibility Wind Dir Wind Speed Gust Speed Precip Events Conditions
12:05 AM 60.8 °F - 57.2 °F 88% 30.03 in 10.0 mi Calm Calm - N/A   Clear
12:25 AM 60.8 °F - 57.2 °F 88% 30.03 in 10.0 mi Calm Calm - N/A   Clear
12:45 AM 60.8 °F - 57.2 °F 88% 30.03 in 10.0 mi Calm Calm - N/A   Clear
1:05 AM 59.0 °F - 57.2 °F 94% 30.04 in 10.0 mi Calm Calm - N/A   Clear
1:25 AM 57.2 °F - 57.2 °F 100% 30.04 in 10.0 mi Calm Calm - N/A   Clear
1:45 AM 57.2 °F - 55.4 °F 94% 30.04 in 10.0 mi Calm Calm - N/A   Clear
2:05 AM 55.4 °F - 55.4 °F 100% 30.03 in 10.0 mi Calm Calm - N/A   Clear
2:25 AM 57.2 °F - 55.4 °F 94% 30.04 in 10.0 mi Calm Calm - N/A   Clear
2:45 AM 57.2 °F - 55.4 °F 94% 30.04 in 10.0 mi Calm Calm - N/A   Clear
3:05 AM 57.2 °F - 55.4 °F 94% 30.04 in 10.0 mi Calm Calm - N/A   Clear
3:25 AM 55.4 °F - 55.4 °F 100% 30.04 in 10.0 mi Calm Calm - N/A   Clear
3:45 AM 57.2 °F - 55.4 °F 94% 30.04 in 10.0 mi Calm Calm - N/A   Clear
4:05 AM 55.4 °F - 55.4 °F 100% 30.05 in 10.0 mi Calm Calm - N/A   Clear
4:25 AM 57.2 °F - 55.4 °F 94% 30.05 in 10.0 mi Calm Calm - N/A   Clear
4:45 AM 59.0 °F - 57.2 °F 94% 30.07 in 10.0 mi NNE 4.6 mph - N/A   Clear
5:05 AM 57.2 °F - 55.4 °F 94% 30.07 in 10.0 mi NNE 3.5 mph - N/A   Clear
5:25 AM 57.2 °F - 57.2 °F 100% 30.07 in 10.0 mi Calm Calm - N/A   Clear
5:45 AM 55.4 °F - 53.6 °F 94% 30.08 in 10.0 mi SSW 3.5 mph - N/A   Clear
6:05 AM 55.4 °F - 55.4 °F 100% 30.08 in 10.0 mi Calm Calm - N/A   Clear
6:25 AM 57.2 °F - 55.4 °F 94% 30.09 in 10.0 mi Calm Calm - N/A   Clear
6:45 AM 55.4 °F - 55.4 °F 100% 30.09 in 10.0 mi Calm Calm - N/A   Clear
7:05 AM 55.4 °F - 55.4 °F 100% 30.10 in 7.0 mi Calm Calm - N/A   Clear
7:25 AM 57.2 °F - 55.4 °F 94% 30.10 in 10.0 mi Calm Calm - N/A   Clear
7:45 AM 57.2 °F - 57.2 °F 100% 30.11 in 10.0 mi Calm Calm - N/A   Clear
8:05 AM 57.2 °F - 57.2 °F 100% 30.11 in 10.0 mi Calm Calm - N/A   Clear
8:25 AM 59.0 °F - 57.2 °F 94% 30.11 in 10.0 mi Calm Calm - N/A   Clear
8:45 AM 62.6 °F - 59.0 °F 88% 30.11 in 10.0 mi Calm Calm - N/A   Clear
9:05 AM 64.4 °F - 59.0 °F 83% 30.12 in 10.0 mi NNE 3.5 mph - N/A   Clear
9:25 AM 66.2 °F - 59.0 °F 78% 30.12 in 10.0 mi NE 4.6 mph - N/A   Clear
9:45 AM 68.0 °F - 60.8 °F 78% 30.12 in 10.0 mi ENE 6.9 mph - N/A   Clear
10:05 AM 68.0 °F - 60.8 °F 78% 30.12 in 10.0 mi NE 5.8 mph - N/A   Clear
10:25 AM 71.6 °F - 60.8 °F 69% 30.13 in 10.0 mi ESE 3.5 mph - N/A   Clear
10:45 AM 71.6 °F - 60.8 °F 69% 30.13 in 10.0 mi NE 4.6 mph - N/A   Clear
11:05 AM 73.4 °F - 60.8 °F 65% 30.14 in 10.0 mi NE 4.6 mph - N/A   Clear
11:25 AM 73.4 °F - 60.8 °F 65% 30.14 in 10.0 mi East 5.8 mph - N/A   Clear
11:45 AM 75.2 °F - 60.8 °F 61% 30.14 in 10.0 mi ENE 4.6 mph - N/A   Clear
12:05 PM 75.2 °F - 59.0 °F 57% 30.14 in 10.0 mi East 5.8 mph - N/A   Clear
12:25 PM 77.0 °F - 59.0 °F 54% 30.14 in 10.0 mi NNE 4.6 mph - N/A   Clear
12:45 PM 78.8 °F - 59.0 °F 51% 30.14 in 10.0 mi NNE 6.9 mph - N/A   Clear
1:05 PM 77.0 °F - 59.0 °F 54% 30.14 in 10.0 mi NNE 6.9 mph - N/A   Clear
1:25 PM 78.8 °F - 59.0 °F 51% 30.14 in 10.0 mi NE 8.1 mph - N/A   Clear
1:45 PM 78.8 °F - 60.8 °F 54% 30.14 in 10.0 mi NNE 5.8 mph - N/A   Clear
2:05 PM 80.6 °F 81.5 °F 60.8 °F 51% 30.14 in 10.0 mi NE 6.9 mph - N/A   Clear
2:25 PM 80.6 °F 81.5 °F 60.8 °F 51% 30.13 in 10.0 mi East 6.9 mph - N/A   Clear
2:45 PM 80.6 °F 81.5 °F 60.8 °F 51% 30.13 in 10.0 mi East 6.9 mph - N/A   Clear
3:05 PM 80.6 °F 81.1 °F 59.0 °F 48% 30.13 in 10.0 mi NNE 4.6 mph - N/A   Clear
3:25 PM 80.6 °F 81.1 °F 59.0 °F 48% 30.13 in 10.0 mi North 3.5 mph - N/A   Clear
3:45 PM 80.6 °F 81.1 °F 59.0 °F 48% 30.12 in 10.0 mi ENE 4.6 mph - N/A   Clear
4:05 PM 82.4 °F 82.5 °F 59.0 °F 45% 30.12 in 10.0 mi East 4.6 mph - N/A   Clear
4:25 PM 80.6 °F 81.1 °F 59.0 °F 48% 30.12 in 10.0 mi NE 3.5 mph - N/A   Clear
4:45 PM 80.6 °F 81.1 °F 59.0 °F 48% 30.11 in 10.0 mi East 3.5 mph - N/A   Clear
5:05 PM 82.4 °F 82.5 °F 59.0 °F 45% 30.11 in 10.0 mi NE 3.5 mph - N/A   Clear
5:25 PM 80.6 °F 81.1 °F 59.0 °F 48% 30.11 in 10.0 mi Calm Calm - N/A   Clear
5:45 PM 80.6 °F 81.1 °F 59.0 °F 48% 30.11 in 10.0 mi ENE 3.5 mph - N/A   Clear
6:05 PM 80.6 °F 81.1 °F 59.0 °F 48% 30.12 in 10.0 mi East 3.5 mph - N/A   Clear
6:25 PM 78.8 °F - 60.8 °F 54% 30.11 in 10.0 mi NE 3.5 mph - N/A   Clear
6:45 PM 78.8 °F - 62.6 °F 57% 30.11 in 10.0 mi Calm Calm - N/A   Clear
7:05 PM 77.0 °F - 62.6 °F 61% 30.11 in 10.0 mi NE 3.5 mph - N/A   Clear
7:25 PM 77.0 °F - 59.0 °F 54% 30.12 in 10.0 mi NE 4.6 mph - N/A   Clear
7:45 PM 75.2 °F - 60.8 °F 61% 30.12 in 10.0 mi NNE 5.8 mph - N/A   Clear
8:05 PM 73.4 °F - 59.0 °F 61% 30.12 in 10.0 mi NE 6.9 mph - N/A   Clear
8:25 PM 71.6 °F - 60.8 °F 69% 30.13 in 10.0 mi ENE 8.1 mph - N/A   Clear
8:45 PM 71.6 °F - 60.8 °F 69% 30.14 in 10.0 mi ENE 6.9 mph - N/A   Clear
9:05 PM 69.8 °F - 60.8 °F 73% 30.15 in 10.0 mi NE 5.8 mph - N/A   Clear
9:25 PM 69.8 °F - 60.8 °F 73% 30.15 in 10.0 mi ENE 4.6 mph - N/A   Clear
9:45 PM 68.0 °F - 59.0 °F 73% 30.15 in 10.0 mi East 5.8 mph - N/A   Clear
10:05 PM 68.0 °F - 57.2 °F 68% 30.16 in 10.0 mi East 6.9 mph - N/A   Clear
10:25 PM 66.2 °F - 57.2 °F 73% 30.16 in 10.0 mi East 4.6 mph - N/A   Clear
10:45 PM 64.4 °F - 57.2 °F 77% 30.17 in 10.0 mi East 3.5 mph - N/A   Clear
11:05 PM 64.4 °F - 57.2 °F 77% 30.17 in 10.0 mi East 3.5 mph - N/A   Clear
11:25 PM 64.4 °F - 57.2 °F 77% 30.18 in 10.0 mi ENE 3.5 mph - N/A   Clear
11:45 PM 64.4 °F - 55.4 °F 73% 30.18 in 10.0 mi ENE 3.5 mph - N/A   Clear